• Join FlightAware (Why Join?)
  • Login
  • US Flag 
03:43AM EDT


 

Airport Tracker/Info


-or-


 

Live Flight TrackerFlight Track Log ✈ CSN6871 ✈ 10-Dec-2013 ✈ ZWWW / URC - ZWKC / KCA

Flight Track Log - Related Links

Times and Time Zones

All times are in EST time to prevent confusion due to time zone crossing. See the CSN6871 flight status page for this flight to view local times or setup timezone preferences in your user account.

Time Position Orientation Groundspeed Altitude Reporting Facility
EST Latitude Longitude Course Direction KTS MPH feet Rate Location/Type
08:31PM 43.8231 87.2888 238° Southwest  Level Estimated
08:32PM 43.7388 87.1040 238° Southwest  Level Estimated
08:33PM 43.6542 86.9196 238° Southwest  Level Estimated
08:34PM 43.5693 86.7358 238° Southwest  Level Estimated
08:35PM 43.4841 86.5524 237° Southwest  Level Estimated
08:36PM 43.3986 86.3696 237° Southwest  Level Estimated
08:37PM 43.3129 86.1873 237° Southwest  Level Estimated
08:38PM 43.2268 86.0056 237° Southwest  Level Estimated
08:39PM 43.1404 85.8243 237° Southwest  Level Estimated
08:40PM 43.0538 85.6435 237° Southwest  Level Estimated
08:41PM 42.9669 85.4633 237° Southwest  Level Estimated
08:42PM 42.8797 85.2836 237° Southwest  Level Estimated
08:43PM 42.7922 85.1044 236° Southwest  Level Estimated
08:44PM 42.7044 84.9256 236° Southwest  Level Estimated
08:45PM 42.6164 84.7474 236° Southwest  Level Estimated
08:46PM 42.5281 84.5697 236° Southwest  Level Estimated
08:47PM 42.4395 84.3925 236° Southwest  Level Estimated
08:48PM 42.3506 84.2158 236° Southwest  Level Estimated
08:49PM 42.2615 84.0396 236° Southwest  Level Estimated
08:50PM 42.1721 83.8639 236° Southwest  Level Estimated
08:51PM 42.0824 83.6887 235° Southwest  Level Estimated
08:52PM 41.9925 83.5140 235° Southwest  Level Estimated
08:53PM 41.9023 83.3398 235° Southwest  Level Estimated
08:54PM 41.8119 83.1661 235° Southwest  Level Estimated
08:55PM 41.7211 82.9928 235° Southwest  Level Estimated
08:56PM 41.7181 82.9869 235° Southwest  Level Estimated
08:57PM 41.7181 82.9869 143° Southeast  Level Estimated
08:58PM 41.7181 82.9869 143° Southeast  Level Estimated
08:59PM 41.7181 82.9869 143° Southeast  Level Estimated
09:00PM 41.7181 82.9869 143° Southeast  Level Estimated
09:01PM 41.7181 82.9869 143° Southeast  Level Estimated
09:02PM 41.7181 82.9869 143° Southeast  Level Estimated
09:03PM 41.7181 82.9869 143° Southeast  Level Estimated
09:04PM 41.7181 82.9869 143° Southeast  Level Estimated
09:05PM 41.7181 82.9869 143° Southeast  Level Estimated
09:06PM 41.7181 82.9869 143° Southeast  Level Estimated
09:07PM 41.7181 82.9869 143° Southeast  Level Estimated
09:08PM 41.7181 82.9869 143° Southeast  Level Estimated